WetterOnline ( http://www.wetteronline.de )

Wetter aktuell Thiessow

Aktuelles Wetter: Greifswalder Oie (12m)

6-stündlich | Neueste Meldungen
Ortszeit Temperatur Wetter
Fr, 16.11. 19:00 7.4° C wolkenlos
Fr, 16.11. 13:00 8.3° C fast wolkenlos
Fr, 16.11. 7:00 7.7° C wolkig
Fr, 16.11. 1:00 8.3° C wolkig
Do, 15.11. 19:00 8.5° C wolkenlos
Do, 15.11. 13:00 9.8° C leicht bewölkt
Do, 15.11. 7:00 8.1° C bedeckt
Do, 15.11. 1:00 7.9° C bedeckt
Ortszeit Temperatur Wetter
Fr, 16.11. 23:00 5.6° C bedeckt
Fr, 16.11. 22:50 5.6° C bedeckt
Fr, 16.11. 22:40 5.6° C bewölkt
Fr, 16.11. 22:30 5.5° C wolkig
Fr, 16.11. 22:20 5.5° C wolkig
Fr, 16.11. 22:10 5.5° C wolkig
Fr, 16.11. 22:00 5.6° C bewölkt
Fr, 16.11. 21:30 5.7° C leicht bewölkt
Fr, 16.11. 21:00 5.8° C fast wolkenlos
Fr, 16.11. 20:30 6.0° C wolkenlos
Fr, 16.11. 20:00 6.6° C wolkenlos
Ortszeit Relative Feuchte Sichtweite
Fr, 16.11. 19:00 76% 20 km
Fr, 16.11. 13:00 73% 11 km
Fr, 16.11. 7:00 74% 28 km
Fr, 16.11. 1:00 75% 18 km
Do, 15.11. 19:00 88% 9 km
Do, 15.11. 13:00 82% 10 km
Do, 15.11. 7:00 94% 6 km
Do, 15.11. 1:00 93% 7 km
Ortszeit Relative Feuchte Sichtweite
Fr, 16.11. 23:00 75% 12 km
Fr, 16.11. 22:50 75% -
Fr, 16.11. 22:40 76% -
Fr, 16.11. 22:30 77% 10 km
Fr, 16.11. 22:20 77% -
Fr, 16.11. 22:10 77% -
Fr, 16.11. 22:00 77% 10 km
Fr, 16.11. 21:30 78% 10 km
Fr, 16.11. 21:00 77% 11 km
Fr, 16.11. 20:30 79% 12 km
Fr, 16.11. 20:00 78% 17 km
Ortszeit Niederschlagsmenge Niederschlagsart
Fr, 16.11. 19:00 0.0 l/m2 in 12 Std. -
Fr, 16.11. 13:00 0.0 l/m2 in 6 Std. -
Fr, 16.11. 7:00 0.0 l/m2 in 12 Std. -
Fr, 16.11. 1:00 0.0 l/m2 in 6 Std. -
Do, 15.11. 19:00 0.0 l/m2 in 12 Std. -
Do, 15.11. 13:00 0.0 l/m2 in 6 Std. -
Do, 15.11. 7:00 0.0 l/m2 in 12 Std. -
Do, 15.11. 1:00 0.0 l/m2 in 6 Std. -
Ortszeit Niederschlagsmenge Niederschlagsart
Fr, 16.11. 23:00 0.0 l/m2 in 1 Std. -
Fr, 16.11. 22:50 keine Meldung -
Fr, 16.11. 22:40 keine Meldung -
Fr, 16.11. 22:30 0.0 l/m2 in 1 Std. -
Fr, 16.11. 22:20 keine Meldung -
Fr, 16.11. 22:10 keine Meldung -
Fr, 16.11. 22:00 0.0 l/m2 in 1 Std. -
Fr, 16.11. 21:30 0.0 l/m2 in 1 Std. -
Fr, 16.11. 21:00 0.0 l/m2 in 1 Std. -
Fr, 16.11. 20:30 0.0 l/m2 in 1 Std. -
Fr, 16.11. 20:00 0.0 l/m2 in 1 Std. -
Ortszeit Stärke Spitze Richtung
km/h Bft. km/h Grad Sektor
Fr, 16.11. 19:00 24 4 35 120° SO
Fr, 16.11. 13:00 18 3 40 140° SO
Fr, 16.11. 7:00 28 4 39 140° SO
Fr, 16.11. 1:00 26 4 39 140° SO
Do, 15.11. 19:00 22 4 36 140° SO
Do, 15.11. 13:00 15 3 24 170° S
Do, 15.11. 7:00 9 2 19 160° S
Do, 15.11. 1:00 13 3 24 200° S
Ortszeit Stärke Spitze Richtung
km/h Bft. km/h Grad Sektor
Fr, 16.11. 23:00 26 4 41 140° SO
Fr, 16.11. 22:50 26 4 - 140° SO
Fr, 16.11. 22:40 24 4 - 140° SO
Fr, 16.11. 22:30 25 4 40 140° SO
Fr, 16.11. 22:20 25 4 - 140° SO
Fr, 16.11. 22:10 28 4 - 140° SO
Fr, 16.11. 22:00 24 4 39 150° SO
Fr, 16.11. 21:30 25 4 40 140° SO
Fr, 16.11. 21:00 30 5 41 140° SO
Fr, 16.11. 20:30 28 4 39 130° SO
Fr, 16.11. 20:00 28 4 41 130° SO
Ortszeit Untergrenze Bedeckung Gattung
total tief tief mittel hoch
Fr, 16.11. 19:00 - 0/8 0/8 - - -
Fr, 16.11. 13:00 10500 m 2/8 0/8 - - -
Fr, 16.11. 7:00 10500 m 8/8 0/8 - - -
Fr, 16.11. 1:00 10500 m 8/8 0/8 - - -
Do, 15.11. 19:00 - 0/8 0/8 - - -
Do, 15.11. 13:00 2400 m 2/8 2/8 - - -
Do, 15.11. 7:00 2400 m 8/8 8/8 - - -
Do, 15.11. 1:00 3000 m 8/8 8/8 - - -
Ortszeit Bedeckungsgrad in Achtel und Wolkenuntergrenze
Fr, 16.11. 23:00 8(510m)
Fr, 16.11. 22:50 8(510m)
Fr, 16.11. 22:40 7(510m)
Fr, 16.11. 22:30 6(480m)
Fr, 16.11. 22:20 6(480m)
Fr, 16.11. 22:10 6(480m)
Fr, 16.11. 22:00 6(480m) 7(1410m)
Fr, 16.11. 21:30 3(480m) 4(1440m)
Fr, 16.11. 21:00 1(480m)
Fr, 16.11. 20:30 keine Wolken
Fr, 16.11. 20:00 keine Wolken
Ortszeit Luftdruck NN (hPa) Tendenz (hPa in 3 Std.)
Fr, 16.11. 19:00 1038 + 0,3
Fr, 16.11. 13:00 1037 - 0,2
Fr, 16.11. 7:00 1035 + 0,7
Fr, 16.11. 1:00 1034 + 1,0
Do, 15.11. 19:00 1032 + 0,6
Do, 15.11. 13:00 1031 0,0
Do, 15.11. 7:00 1030 + 0,5
Do, 15.11. 1:00 1029 + 0,1
Ortszeit Luftdruck NN (hPa) Tendenz (hPa in 3 Std.)
Fr, 16.11. 23:00 1039 + 0,7
Fr, 16.11. 22:50 1039 keine Meldung
Fr, 16.11. 22:40 1039 keine Meldung
Fr, 16.11. 22:30 1039 + 0,9
Fr, 16.11. 22:20 1039 keine Meldung
Fr, 16.11. 22:10 1039 keine Meldung
Fr, 16.11. 22:00 1039 + 0,6
Fr, 16.11. 21:30 1039 + 1,0
Fr, 16.11. 21:00 1039 + 1,0
Fr, 16.11. 20:30 1038 + 0,8
Fr, 16.11. 20:00 1038 + 0,7
Ortszeit Schneehöhe (cm)
Fr, 16.11. 19:00 0
Fr, 16.11. 13:00 0
Fr, 16.11. 7:00 0
Fr, 16.11. 1:00 0
Do, 15.11. 19:00 0
Do, 15.11. 13:00 0
Do, 15.11. 7:00 0
Do, 15.11. 1:00 0
Ortszeit Schneehöhe (cm)
Fr, 16.11. 23:00 0
Fr, 16.11. 22:50 0
Fr, 16.11. 22:40 0
Fr, 16.11. 22:30 0
Fr, 16.11. 22:20 0
Fr, 16.11. 22:10 0
Fr, 16.11. 22:00 0
Fr, 16.11. 21:30 0
Fr, 16.11. 21:00 0
Fr, 16.11. 20:30 0
Fr, 16.11. 20:00 0
Link zu dieser Seite / Seite empfehlen

Das Wetter in ...